Time;durP1;ratioP1;P1;durP2;ratioP2;P2;SDS_P1;SDS_P2;PMS_P1;PMS_P2;Temp;Humidity;BMP_temperature;BMP_pressure;BME280_temperature;BME280_humidity;BME280_pressure;Samples;Min_cycle;Max_cycle;Signal;HPM_P1;HPM_P2
2022/08/02 00:01:36;;;;;;;0.30;0.30;;;;;;;18.42;100.00;60892.56;5981137;23;20005;-90
2022/08/02 00:04:50;;;;;;;0.30;0.30;;;;;;;18.39;100.00;60892.56;5980295;23;20008;-91
2022/08/02 00:11:00;;;;;;;0.40;0.30;;;;;;;18.29;100.00;60892.56;6014048;23;20324;-90
2022/08/02 00:14:14;;;;;;;0.43;0.35;;;;;;;18.26;100.00;60892.56;5981084;23;20004;-90
2022/08/02 00:17:28;;;;;;;0.40;0.40;;;;;;;18.22;100.00;60892.56;5959283;23;20419;-90
2022/08/02 00:20:23;;;;;;;0.55;0.30;;;;;;;18.19;100.00;60892.56;5981726;23;20009;-91
2022/08/02 00:23:25;;;;;;;0.30;0.30;;;;;;;18.48;100.00;60892.56;5981041;23;20005;-89
2022/08/02 00:26:53;;;;;;;0.50;0.40;;;;;;;-145.06;100.00;60892.56;5981893;23;20036;-90
2022/08/02 00:29:49;;;;;;;0.45;0.30;;;;;;;-145.06;100.00;60892.56;6003742;23;20004;-90
2022/08/02 00:32:56;;;;;;;0.80;0.30;;;;;;;-145.06;100.00;60892.56;5981338;23;20005;-89
2022/08/02 00:36:13;;;;;;;;;;;;;;;;;;;;;
2022/08/02 00:39:26;;;;;;;0.30;0.22;;;;;;;-145.06;100.00;60892.56;5990281;23;20005;-89
2022/08/02 00:42:19;;;;;;;0.75;0.40;;;;;;;-145.06;100.00;60892.56;5980958;23;20004;-91
2022/08/02 00:45:17;;;;;;;0.93;0.30;;;;;;;-145.06;100.00;60892.56;5952819;23;20016;-89
2022/08/02 00:48:30;;;;;;;0.45;0.38;;;;;;;-145.06;100.00;60892.56;5951749;23;20427;-89
2022/08/02 00:51:28;;;;;;;1.15;0.30;;;;;;;-145.06;100.00;60892.56;5933152;23;20005;-90
2022/08/02 00:54:22;;;;;;;0.25;0.20;;;;;;;-145.06;100.00;60892.56;5952746;23;20360;-91
2022/08/02 00:57:20;;;;;;;0.60;0.30;;;;;;;-145.06;100.00;60892.56;5951463;23;20001;-89
2022/08/02 01:00:09;;;;;;;0.93;0.30;;;;;;;-145.06;100.00;60892.56;5951324;23;20024;-90
2022/08/02 01:03:23;;;;;;;0.50;0.50;;;;;;;-145.06;100.00;60892.56;5948451;23;20368;-91
2022/08/02 01:06:33;;;;;;;;;;;;;;;;;;;;;
2022/08/02 01:09:49;;;;;;;;;;;;;;;;;;;;;
2022/08/02 01:12:43;;;;;;;2.38;0.35;;;;;;;-145.06;100.00;60892.56;5984505;23;20017;-90
2022/08/02 01:15:51;;;;;;;0.77;0.40;;;;;;;-145.06;100.00;60892.56;5952754;23;20005;-90
2022/08/02 01:18:44;;;;;;;0.50;0.40;;;;;;;-145.06;100.00;60892.56;5973623;23;20005;-89
2022/08/02 01:21:51;;;;;;;0.65;0.30;;;;;;;-145.06;100.00;60892.56;5952319;23;20001;-89
2022/08/02 01:25:20;;;;;;;0.20;0.20;;;;;;;-145.06;100.00;60892.56;5952611;23;20001;-90
2022/08/02 01:28:31;;;;;;;0.43;0.32;;;;;;;-145.06;100.00;60892.56;5952614;23;20057;-90
2022/08/02 01:31:50;;;;;;;0.82;0.40;;;;;;;-145.06;100.00;60892.56;5953627;23;20028;-90
2022/08/02 01:34:34;;;;;;;0.65;0.40;;;;;;;-145.06;100.00;60892.56;5952281;23;20004;-89
2022/08/02 01:37:29;;;;;;;0.70;0.45;;;;;;;-145.06;100.00;60892.56;5953124;23;20017;-92
2022/08/02 01:40:26;;;;;;;1.02;0.43;;;;;;;-145.06;100.00;60892.56;5952549;23;20072;-89
2022/08/02 01:43:25;;;;;;;0.45;0.40;;;;;;;-145.06;100.00;60892.56;5958909;23;20091;-90
2022/08/02 01:46:22;;;;;;;0.40;0.40;;;;;;;-145.06;100.00;60892.56;5981551;23;20001;-90
2022/08/02 01:49:23;;;;;;;0.50;0.43;;;;;;;-145.06;100.00;60892.56;5981555;23;20024;-91
2022/08/02 01:52:20;;;;;;;0.52;0.40;;;;;;;-145.06;100.00;60892.56;5981086;23;20431;-91
2022/08/02 01:55:41;;;;;;;0.63;0.30;;;;;;;-145.06;100.00;60892.56;5982167;23;20000;-90
2022/08/02 01:58:23;;;;;;;0.50;0.28;;;;;;;-145.06;100.00;60892.56;6005592;23;20427;-89
2022/08/02 02:01:11;;;;;;;0.45;0.38;;;;;;;-145.06;100.00;60892.56;5983647;23;20024;-90
2022/08/02 02:03:50;;;;;;;0.57;0.40;;;;;;;-145.06;100.00;60892.56;5983585;23;20108;-89
2022/08/02 02:06:38;;;;;;;0.45;0.40;;;;;;;-145.06;100.00;60892.56;5984285;23;20504;-90
2022/08/02 02:09:31;;;;;;;0.52;0.40;;;;;;;-145.06;100.00;60892.56;5983363;23;20546;-90
2022/08/02 02:12:24;;;;;;;0.30;0.30;;;;;;;-145.06;100.00;60892.56;5983944;23;20000;-89
2022/08/02 02:15:39;;;;;;;0.98;0.50;;;;;;;-145.06;100.00;60892.56;5977181;22;20020;-90
2022/08/02 02:18:37;;;;;;;0.50;0.40;;;;;;;-145.06;100.00;60892.56;5983665;23;20005;-88
2022/08/02 02:21:38;;;;;;;0.57;0.30;;;;;;;-145.06;100.00;60892.56;5983440;23;20001;-89
2022/08/02 02:24:38;;;;;;;0.85;0.40;;;;;;;-145.06;100.00;60892.56;5982730;23;20008;-90
2022/08/02 02:31:16;;;;;;;0.70;0.40;;;;;;;-145.06;100.00;60892.56;6014599;23;20000;-89
2022/08/02 02:34:12;;;;;;;1.33;0.47;;;;;;;-145.06;100.00;60892.56;5982666;23;20004;-91
2022/08/02 02:36:59;;;;;;;0.43;0.40;;;;;;;-145.06;100.00;60892.56;5982393;23;20005;-89
2022/08/02 02:39:54;;;;;;;0.68;0.45;;;;;;;-145.06;100.00;60892.56;5981943;23;20008;-89
2022/08/02 02:42:47;;;;;;;0.50;0.40;;;;;;;-145.06;100.00;60892.56;5982300;23;19997;-90
2022/08/02 02:45:36;;;;;;;0.60;0.40;;;;;;;-145.06;100.00;60892.56;5982499;23;20004;-91
2022/08/02 02:48:25;;;;;;;0.43;0.43;;;;;;;-145.06;100.00;60892.56;5982105;23;20008;-90
2022/08/02 02:51:21;;;;;;;0.43;0.40;;;;;;;-145.06;100.00;60892.56;5982336;23;20004;-91
2022/08/02 02:54:32;;;;;;;1.50;0.82;;;;;;;-145.06;100.00;60892.56;5981634;23;20005;-90
2022/08/02 02:57:21;;;;;;;0.35;0.32;;;;;;;-145.06;100.00;60892.56;5983080;23;20005;-90
2022/08/02 03:00:13;;;;;;;0.60;0.50;;;;;;;-145.06;100.00;60892.56;5982067;23;20423;-89
2022/08/02 03:02:56;;;;;;;0.80;0.30;;;;;;;-145.06;100.00;60892.56;5982370;23;20596;-90
2022/08/02 03:05:44;;;;;;;0.90;0.50;;;;;;;-145.06;100.00;60892.56;5982468;23;20312;-90
2022/08/02 03:08:26;;;;;;;0.40;0.30;;;;;;;-145.06;100.00;60892.56;5983034;23;20008;-90
2022/08/02 03:11:18;;;;;;;0.47;0.47;;;;;;;-145.06;100.00;60892.56;5982978;23;20009;-91
2022/08/02 03:14:11;;;;;;;0.55;0.50;;;;;;;-145.06;100.00;60892.56;5982588;23;20009;-90
2022/08/02 03:16:56;;;;;;;1.30;0.60;;;;;;;-145.06;100.00;60892.56;5981985;23;20009;-90
2022/08/02 03:19:41;;;;;;;0.60;0.50;;;;;;;-145.06;100.00;60892.56;5982404;23;20008;-90
2022/08/02 03:22:38;;;;;;;0.82;0.52;;;;;;;-145.06;100.00;60892.56;5982267;23;20031;-91
2022/08/02 03:25:25;;;;;;;1.50;0.43;;;;;;;17.42;100.00;60892.56;5981719;23;20004;-89
2022/08/02 03:28:07;;;;;;;1.08;0.57;;;;;;;-145.06;100.00;60892.56;5981734;23;20004;-89
2022/08/02 03:30:54;;;;;;;0.90;0.60;;;;;;;21.08;100.00;60892.56;5982145;23;20005;-90
2022/08/02 03:36:29;;;;;;;0.88;0.60;;;;;;;-145.06;100.00;60892.56;5973861;23;20502;-91
2022/08/02 03:39:22;;;;;;;0.52;0.50;;;;;;;-145.06;100.00;60892.56;5954857;23;20008;-90
2022/08/02 03:42:17;;;;;;;0.52;0.40;;;;;;;-145.06;100.00;60892.56;5953672;23;20028;-89
2022/08/02 03:45:01;;;;;;;0.50;0.50;;;;;;;-145.06;100.00;60892.56;5968979;23;20004;-91
2022/08/02 03:47:46;;;;;;;0.90;0.40;;;;;;;-145.06;100.00;60892.56;5953620;23;20005;-89
2022/08/02 03:50:35;;;;;;;0.65;0.60;;;;;;;-145.06;100.00;60892.56;5953341;23;20009;-89
2022/08/02 03:53:18;;;;;;;0.43;0.40;;;;;;;-145.06;100.00;60892.56;5953692;23;20009;-91
2022/08/02 03:56:04;;;;;;;0.43;0.40;;;;;;;-145.06;100.00;60892.56;5952997;23;20236;-91
2022/08/02 03:58:52;;;;;;;0.68;0.45;;;;;;;17.15;100.00;60892.56;5953124;23;20009;-91
2022/08/02 04:01:34;;;;;;;1.52;0.57;;;;;;;-145.06;100.00;60892.56;5953430;23;19997;-88
2022/08/02 04:04:30;;;;;;;0.40;0.40;;;;;;;-145.06;100.00;60892.56;5953118;23;20193;-90
2022/08/02 04:07:17;;;;;;;0.70;0.47;;;;;;;-145.06;100.00;60892.56;5953293;23;20005;-90
2022/08/02 04:09:57;;;;;;;0.95;0.55;;;;;;;17.07;100.00;60892.56;5954950;23;20005;-89
2022/08/02 04:12:36;;;;;;;1.53;0.60;;;;;;;-145.06;100.00;60892.56;5954925;23;20037;-88
2022/08/02 04:15:17;;;;;;;0.70;0.50;;;;;;;-145.06;100.00;60892.56;5954642;23;20009;-89
2022/08/02 04:18:05;;;;;;;;;;;;;;;-145.06;100.00;60892.56;5955241;23;20005;-90
2022/08/02 04:21:03;;;;;;;0.50;0.50;;;;;;;-145.06;100.00;60892.56;5953386;23;19904;-89
2022/08/02 04:24:06;;;;;;;;;;;;;;;;;;;;;
2022/08/02 04:26:47;;;;;;;0.60;0.50;;;;;;;17.06;100.00;60892.56;5982399;23;20308;-88
2022/08/02 04:29:26;;;;;;;0.52;0.40;;;;;;;16.90;100.00;60892.56;5950198;23;20005;-90
2022/08/02 04:32:06;;;;;;;0.40;0.40;;;;;;;17.18;100.00;60892.56;5949709;23;20009;-88
2022/08/02 04:34:46;;;;;;;0.60;0.60;;;;;;;16.82;100.00;60892.56;5949588;23;20005;-90
2022/08/02 04:37:26;;;;;;;;;;;;;;;-145.06;100.00;60892.56;5950616;23;20048;-90
2022/08/02 04:40:12;;;;;;;0.50;0.50;;;;;;;-145.06;100.00;60892.56;5949078;23;19904;-90
2022/08/02 04:42:51;;;;;;;0.95;0.50;;;;;;;-145.06;100.00;60892.56;5949675;23;20001;-89
2022/08/02 04:45:31;;;;;;;0.77;0.50;;;;;;;-145.06;100.00;60892.56;5949187;23;20005;-90
2022/08/02 04:48:10;;;;;;;;;;;;;;;-145.06;100.00;60892.56;5950656;23;20036;-88
2022/08/02 04:50:49;;;;;;;0.40;0.40;;;;;;;16.73;100.00;60892.56;5949304;23;19904;-89
2022/08/02 04:53:28;;;;;;;0.40;0.30;;;;;;;-145.06;100.00;60892.56;5950189;23;20017;-89
2022/08/02 04:56:07;;;;;;;1.10;0.57;;;;;;;-145.06;100.00;60892.56;5949729;23;20001;-89
2022/08/02 04:58:46;;;;;;;0.52;0.50;;;;;;;-145.06;100.00;60892.56;5971034;23;20076;-89
2022/08/02 05:01:25;;;;;;;0.70;0.60;;;;;;;16.77;100.00;60892.56;5949540;23;20428;-91
2022/08/02 05:04:04;;;;;;;0.77;0.50;;;;;;;16.85;100.00;60892.56;5949663;23;20009;-89
2022/08/02 05:06:44;;;;;;;2.40;0.40;;;;;;;-145.06;100.00;60892.56;5949776;23;20241;-90
2022/08/02 05:09:23;;;;;;;0.60;0.50;;;;;;;-145.06;100.00;60892.56;5949698;23;20009;-90
2022/08/02 05:12:02;;;;;;;1.17;0.70;;;;;;;-145.06;100.00;60892.56;5951950;23;20013;-88
2022/08/02 05:14:41;;;;;;;0.68;0.65;;;;;;;16.87;100.00;60892.56;5949260;23;20320;-88
2022/08/02 05:17:20;;;;;;;0.93;0.60;;;;;;;-145.06;100.00;60892.56;5970186;23;20428;-88
2022/08/02 05:19:59;;;;;;;0.77;0.63;;;;;;;-145.06;100.00;60892.56;5950082;23;20236;-89
2022/08/02 05:22:39;;;;;;;1.30;0.77;;;;;;;-145.06;100.00;60892.56;5970509;23;20001;-90
2022/08/02 05:25:18;;;;;;;;;;;;;;;-145.06;100.00;60892.56;5949668;23;20236;-90
2022/08/02 05:27:57;;;;;;;1.30;0.50;;;;;;;-145.06;100.00;60892.56;5949168;23;19904;-90
2022/08/02 05:30:36;;;;;;;0.90;0.60;;;;;;;-145.06;100.00;60892.56;5949720;23;20009;-91
2022/08/02 05:33:15;;;;;;;0.50;0.50;;;;;;;-145.06;100.00;60892.56;5950278;23;20471;-89
2022/08/02 05:35:54;;;;;;;1.17;0.70;;;;;;;-145.06;100.00;60892.56;5980803;23;20320;-90
2022/08/02 05:38:33;;;;;;;1.40;0.80;;;;;;;17.38;100.00;60892.56;5948483;23;20028;-88
2022/08/02 05:41:12;;;;;;;1.33;0.60;;;;;;;-145.06;100.00;60892.56;5948550;23;20514;-89
2022/08/02 05:43:51;;;;;;;2.00;0.80;;;;;;;-145.06;100.00;60892.56;5970297;23;20431;-90
2022/08/02 05:46:30;;;;;;;1.50;0.70;;;;;;;-145.06;100.00;60892.56;5948575;23;20036;-90
2022/08/02 05:49:09;;;;;;;0.80;0.60;;;;;;;-145.06;100.00;60892.56;5948780;23;20233;-91
2022/08/02 05:52:08;;;;;;;1.23;0.73;;;;;;;-145.06;100.00;60892.56;5949863;23;20005;-88
2022/08/02 05:55:02;;;;;;;0.50;0.47;;;;;;;-145.06;100.00;60892.56;5950280;23;20012;-89
2022/08/02 05:57:41;;;;;;;0.77;0.40;;;;;;;-145.06;100.00;60892.56;5950804;23;20005;-89
2022/08/02 06:00:21;;;;;;;1.17;0.63;;;;;;;-145.06;100.00;60892.56;5951087;23;20005;-90
2022/08/02 06:03:23;;;;;;;1.75;0.57;;;;;;;-145.06;100.00;60892.56;5951413;23;20001;-89
2022/08/02 06:06:14;;;;;;;0.60;0.50;;;;;;;-145.06;100.00;60892.56;5972312;23;19993;-92
2022/08/02 06:09:09;;;;;;;0.65;0.60;;;;;;;18.23;100.00;60892.56;5973879;23;20013;-89
2022/08/02 06:11:51;;;;;;;1.55;0.60;;;;;;;18.33;100.00;60892.56;5950204;23;20435;-89
2022/08/02 06:14:32;;;;;;;0.65;0.43;;;;;;;18.48;100.00;60892.56;5949924;23;20005;-90
2022/08/02 06:17:12;;;;;;;1.55;0.68;;;;;;;-145.06;100.00;60892.56;5950266;23;20009;-91
2022/08/02 06:19:57;;;;;;;0.75;0.50;;;;;;;-145.06;100.00;60892.56;5949706;23;20458;-90
2022/08/02 06:22:40;;;;;;;2.05;0.70;;;;;;;-145.06;100.00;60892.56;5950651;23;20005;-91
2022/08/02 06:25:21;;;;;;;1.20;0.75;;;;;;;-145.06;100.00;60892.56;5950583;23;20427;-90
2022/08/02 06:28:05;;;;;;;0.70;0.55;;;;;;;-145.06;100.00;60892.56;5948920;23;20088;-89
2022/08/02 06:30:44;;;;;;;0.63;0.60;;;;;;;-145.06;100.00;60892.56;5949533;23;20009;-89
2022/08/02 06:33:24;;;;;;;0.85;0.60;;;;;;;-145.06;100.00;60892.56;5949964;23;20013;-89
2022/08/02 06:36:06;;;;;;;0.60;0.57;;;;;;;-145.06;100.00;60892.56;5949547;23;20013;-91
2022/08/02 06:38:51;;;;;;;0.90;0.50;;;;;;;19.27;100.00;60892.56;5949838;23;20440;-89
2022/08/02 06:41:39;;;;;;;1.15;0.50;;;;;;;-145.06;100.00;60892.56;5949584;23;20001;-91
2022/08/02 06:44:18;;;;;;;0.70;0.45;;;;;;;-145.06;100.00;60892.56;5949471;23;20009;-89
2022/08/02 06:46:57;;;;;;;0.55;0.40;;;;;;;-145.06;100.00;60892.56;5951651;23;20295;-90
2022/08/02 06:49:36;;;;;;;1.20;0.63;;;;;;;-145.06;100.00;60892.56;5950510;23;20072;-90
2022/08/02 06:52:16;;;;;;;0.60;0.40;;;;;;;-145.06;100.00;60892.56;5949558;23;20038;-91
2022/08/02 06:54:59;;;;;;;1.25;0.73;;;;;;;-145.06;100.00;60892.56;5949950;23;20302;-89
2022/08/02 06:57:38;;;;;;;0.50;0.43;;;;;;;-145.06;100.00;60892.56;5970344;23;20009;-90
2022/08/02 07:00:17;;;;;;;0.70;0.47;;;;;;;-145.06;100.00;60892.56;5950309;23;20001;-89
2022/08/02 07:02:56;;;;;;;1.08;0.60;;;;;;;-145.06;100.00;60892.56;5970793;23;20080;-90
2022/08/02 07:05:35;;;;;;;0.40;0.40;;;;;;;-145.06;100.00;60892.56;5949663;23;20005;-89
2022/08/02 07:08:15;;;;;;;1.13;0.70;;;;;;;-145.06;100.00;60892.56;5949618;23;20008;-88
2022/08/02 07:10:57;;;;;;;0.40;0.40;;;;;;;-145.06;100.00;60892.56;5949349;23;20008;-89
2022/08/02 07:13:36;;;;;;;0.30;0.30;;;;;;;21.08;100.00;60892.56;5949526;23;20009;-90
2022/08/02 07:16:15;;;;;;;0.40;0.40;;;;;;;-145.06;100.00;60892.56;5949698;23;20005;-91
2022/08/02 07:18:54;;;;;;;0.43;0.40;;;;;;;-145.06;100.00;60892.56;5949650;23;20013;-89
2022/08/02 07:21:33;;;;;;;0.60;0.40;;;;;;;-145.06;100.00;60892.56;5949186;23;20611;-91
2022/08/02 07:24:12;;;;;;;0.47;0.35;;;;;;;-145.06;100.00;60892.56;5948952;23;20005;-91
2022/08/02 07:26:51;;;;;;;0.70;0.50;;;;;;;-145.06;100.00;60892.56;5949151;23;20313;-90
2022/08/02 07:29:29;;;;;;;0.40;0.38;;;;;;;-145.06;100.00;60892.56;5949264;23;20435;-89
2022/08/02 07:32:08;;;;;;;0.32;0.30;;;;;;;20.98;100.00;60892.56;5948870;23;20088;-90
2022/08/02 07:34:48;;;;;;;0.40;0.40;;;;;;;-145.06;100.00;60892.56;5949117;23;20013;-91
2022/08/02 07:37:32;;;;;;;0.40;0.40;;;;;;;-145.06;100.00;60892.56;5949013;23;20009;-90
2022/08/02 07:40:13;;;;;;;0.40;0.40;;;;;;;-145.06;100.00;60892.56;5949085;23;20004;-89
2022/08/02 07:42:54;;;;;;;0.45;0.40;;;;;;;-145.06;100.00;60892.56;5948757;23;20001;-89
2022/08/02 07:45:34;;;;;;;0.30;0.30;;;;;;;-145.06;100.00;60892.56;5948602;23;20009;-91
2022/08/02 07:48:13;;;;;;;0.45;0.40;;;;;;;-145.06;100.00;60892.56;5948598;23;20032;-89
2022/08/02 07:50:52;;;;;;;0.60;0.60;;;;;;;-145.06;100.00;60892.56;5948649;23;20009;-90
2022/08/02 07:53:30;;;;;;;0.52;0.50;;;;;;;-145.06;100.00;60892.56;5948252;23;20005;-89
2022/08/02 07:56:09;;;;;;;0.47;0.47;;;;;;;-145.06;100.00;60892.56;5980186;23;20009;-89
2022/08/02 07:58:48;;;;;;;0.47;0.45;;;;;;;-145.06;100.00;60892.56;5948398;23;20440;-90
2022/08/02 08:01:27;;;;;;;0.45;0.30;;;;;;;-145.06;100.00;60892.56;5969711;23;20005;-90
2022/08/02 08:04:07;;;;;;;0.50;0.50;;;;;;;-145.06;100.00;60892.56;5948469;23;20431;-90
2022/08/02 08:06:51;;;;;;;1.63;0.50;;;;;;;-145.06;100.00;60892.56;5948575;23;20005;-90
2022/08/02 08:09:30;;;;;;;2.55;0.60;;;;;;;-145.06;100.00;60892.56;5948635;23;20080;-90
2022/08/02 08:12:09;;;;;;;0.50;0.50;;;;;;;-145.06;100.00;60892.56;5948745;23;20024;-90
2022/08/02 08:14:48;;;;;;;0.55;0.50;;;;;;;-145.06;100.00;60892.56;5968925;23;20004;-90
2022/08/02 08:17:27;;;;;;;0.30;0.30;;;;;;;-145.06;100.00;60892.56;5948628;23;20009;-89
2022/08/02 08:20:06;;;;;;;1.45;0.40;;;;;;;-145.06;100.00;60892.56;5948510;23;20416;-90
2022/08/02 08:22:46;;;;;;;;;;;;;;;-145.06;100.00;60892.56;5949298;23;20005;-90
2022/08/02 08:25:26;;;;;;;0.45;0.40;;;;;;;-145.06;100.00;60892.56;5948669;23;19904;-91
2022/08/02 08:28:05;;;;;;;1.08;0.45;;;;;;;-145.06;100.00;60892.56;5948550;23;20009;-90
2022/08/02 08:30:44;;;;;;;0.50;0.50;;;;;;;-145.06;100.00;60892.56;5949106;23;20336;-89
2022/08/02 08:33:23;;;;;;;0.63;0.50;;;;;;;-145.06;100.00;60892.56;5948286;23;20438;-89
2022/08/02 08:36:03;;;;;;;0.40;0.40;;;;;;;24.89;100.00;60892.56;5948277;23;20448;-92
2022/08/02 08:38:42;;;;;;;0.43;0.43;;;;;;;-145.06;100.00;60892.56;5948397;23;20013;-92
2022/08/02 08:41:21;;;;;;;0.50;0.50;;;;;;;-145.06;100.00;60892.56;5948015;23;20025;-89
2022/08/02 08:44:00;;;;;;;0.47;0.40;;;;;;;-145.06;100.00;60892.56;5948695;23;20005;-89
2022/08/02 08:46:42;;;;;;;0.60;0.38;;;;;;;-145.06;100.00;60892.56;5948775;23;20001;-90
2022/08/02 08:49:31;;;;;;;0.50;0.50;;;;;;;-145.06;100.00;60892.56;5948413;23;20618;-90
2022/08/02 08:52:12;;;;;;;0.63;0.40;;;;;;;-145.06;100.00;60892.56;5948185;23;20001;-92
2022/08/02 08:54:54;;;;;;;0.45;0.40;;;;;;;-145.06;100.00;60892.56;5948714;23;20008;-90
2022/08/02 08:57:37;;;;;;;0.40;0.30;;;;;;;-145.06;100.00;60892.56;5948233;23;20005;-91
2022/08/02 09:00:16;;;;;;;0.45;0.40;;;;;;;-145.06;100.00;60892.56;5948365;23;20009;-92
2022/08/02 09:02:56;;;;;;;0.60;0.45;;;;;;;-145.06;100.00;60892.56;5948649;23;20001;-89
2022/08/02 09:05:36;;;;;;;;;;;;;;;-145.06;100.00;60892.56;5969792;23;20005;-90
2022/08/02 09:08:15;;;;;;;0.68;0.40;;;;;;;-145.06;100.00;60892.56;5948788;23;20275;-91
2022/08/02 09:10:54;;;;;;;0.50;0.40;;;;;;;25.53;100.00;60892.56;5948229;23;20009;-89
2022/08/02 09:13:35;;;;;;;0.82;0.50;;;;;;;-145.06;100.00;60892.56;5948052;23;20083;-90
2022/08/02 09:16:14;;;;;;;0.40;0.40;;;;;;;-145.06;100.00;60892.56;5947948;23;20032;-90
2022/08/02 09:18:53;;;;;;;0.40;0.40;;;;;;;-145.06;100.00;60892.56;5947906;23;20004;-90
2022/08/02 09:21:36;;;;;;;1.60;0.40;;;;;;;-145.06;100.00;60892.56;5970020;23;20005;-90
2022/08/02 09:24:22;;;;;;;0.50;0.50;;;;;;;-145.06;100.00;60892.56;5951325;23;20009;-91
2022/08/02 09:27:10;;;;;;;0.40;0.40;;;;;;;-145.06;100.00;60892.56;6004853;23;19997;-90
2022/08/02 09:29:53;;;;;;;0.25;0.22;;;;;;;-145.06;100.00;60892.56;5986942;23;20013;-90
2022/08/02 09:32:44;;;;;;;0.60;0.50;;;;;;;-145.06;100.00;60892.56;5950825;23;20085;-91
2022/08/02 09:35:39;;;;;;;0.50;0.50;;;;;;;-145.06;100.00;60892.56;5950414;23;20013;-90
2022/08/02 09:38:18;;;;;;;0.47;0.47;;;;;;;-145.06;100.00;60892.56;5949849;23;20001;-91
2022/08/02 09:40:59;;;;;;;0.50;0.50;;;;;;;-145.06;100.00;60892.56;5949747;23;20009;-90
2022/08/02 09:43:42;;;;;;;0.45;0.40;;;;;;;-145.06;100.00;60892.56;5950243;23;20350;-91
2022/08/02 09:46:26;;;;;;;0.40;0.40;;;;;;;-145.06;100.00;60892.56;5949051;23;20009;-90
2022/08/02 09:49:15;;;;;;;0.60;0.60;;;;;;;-145.06;100.00;60892.56;5949307;23;20000;-92
2022/08/02 09:51:56;;;;;;;0.90;0.60;;;;;;;-145.06;100.00;60892.56;5949007;23;20005;-89
2022/08/02 09:54:39;;;;;;;0.60;0.60;;;;;;;-145.06;100.00;60892.56;5948967;23;20005;-91
2022/08/02 09:57:39;;;;;;;0.45;0.40;;;;;;;-145.06;100.00;60892.56;5949519;23;20005;-90
2022/08/02 10:00:19;;;;;;;0.52;0.50;;;;;;;-145.06;100.00;60892.56;5949113;23;20009;-91
2022/08/02 10:03:05;;;;;;;0.50;0.50;;;;;;;-145.06;100.00;60892.56;5949609;23;20001;-90
2022/08/02 10:05:48;;;;;;;0.40;0.30;;;;;;;-145.06;100.00;60892.56;5949096;23;20004;-92
2022/08/02 10:08:28;;;;;;;0.38;0.38;;;;;;;-145.06;100.00;60892.56;5948852;23;20005;-90
2022/08/02 10:11:07;;;;;;;0.60;0.43;;;;;;;-145.06;100.00;60892.56;5949169;23;20002;-89
2022/08/02 10:13:52;;;;;;;0.50;0.40;;;;;;;-145.06;100.00;60892.56;5949391;23;20009;-90
2022/08/02 10:16:38;;;;;;;0.40;0.40;;;;;;;-145.06;100.00;60892.56;5949243;23;20001;-91
2022/08/02 10:19:17;;;;;;;0.88;0.50;;;;;;;-145.06;100.00;60892.56;5948921;23;20569;-91
2022/08/02 10:22:05;;;;;;;0.35;0.30;;;;;;;-145.06;100.00;60892.56;5949323;23;20004;-89
2022/08/02 10:24:45;;;;;;;0.70;0.52;;;;;;;-145.06;100.00;60892.56;5949352;23;20042;-89
2022/08/02 10:27:24;;;;;;;;;;;;;;;-145.06;100.00;60892.56;5950125;23;20009;-92
2022/08/02 10:30:03;;;;;;;;;;;;;;;-145.06;100.00;60892.56;5950063;23;19971;-91
2022/08/02 10:32:44;;;;;;;;;;;;;;;-145.06;100.00;60892.56;5949473;23;19909;-91
2022/08/02 10:35:24;;;;;;;0.50;0.45;;;;;;;-145.06;100.00;60892.56;5948939;23;20319;-90
2022/08/02 10:38:07;;;;;;;0.50;0.40;;;;;;;-145.06;100.00;60892.56;5948875;23;20009;-90
2022/08/02 10:40:51;;;;;;;0.40;0.40;;;;;;;-145.06;100.00;60892.56;5948858;23;20036;-90
2022/08/02 10:43:36;;;;;;;0.50;0.40;;;;;;;-145.06;100.00;60892.56;5949796;23;20009;-90
2022/08/02 10:46:31;;;;;;;0.60;0.60;;;;;;;-145.06;100.00;60892.56;5948559;23;20368;-91
2022/08/02 10:49:13;;;;;;;0.40;0.30;;;;;;;-145.06;100.00;60892.56;5948809;23;20368;-90
2022/08/02 10:51:52;;;;;;;0.50;0.32;;;;;;;-145.06;100.00;60892.56;5948243;23;20005;-91
2022/08/02 10:54:30;;;;;;;0.63;0.40;;;;;;;-145.06;100.00;60892.56;5948625;23;20004;-90
2022/08/02 10:57:30;;;;;;;0.88;0.40;;;;;;;-145.06;100.00;60892.56;5948890;23;20005;-89
2022/08/02 11:00:24;;;;;;;0.50;0.50;;;;;;;-145.06;100.00;60892.56;5948626;23;20001;-89
2022/08/02 11:03:03;;;;;;;0.52;0.40;;;;;;;-145.06;100.00;60892.56;5948316;23;20005;-91
2022/08/02 11:05:42;;;;;;;0.40;0.40;;;;;;;-145.06;100.00;60892.56;5948589;23;20317;-91
2022/08/02 11:08:24;;;;;;;0.40;0.35;;;;;;;-145.06;100.00;60892.56;5969586;23;20005;-90
2022/08/02 11:11:09;;;;;;;0.52;0.30;;;;;;;-145.06;100.00;60892.56;5948137;23;20005;-89
2022/08/02 11:14:08;;;;;;;0.50;0.50;;;;;;;-145.06;100.00;60892.56;5948789;23;20372;-92
2022/08/02 11:16:56;;;;;;;0.32;0.30;;;;;;;-145.06;100.00;60892.56;5948275;23;20080;-92
2022/08/02 11:20:07;;;;;;;1.00;0.40;;;;;;;-145.06;100.00;60892.56;5948749;23;20001;-89
2022/08/02 11:22:48;;;;;;;0.30;0.30;;;;;;;29.25;100.00;60892.56;5948283;23;20076;-89
2022/08/02 11:25:26;;;;;;;1.08;0.40;;;;;;;-145.06;100.00;60892.56;5969176;23;20483;-90
2022/08/02 11:28:10;;;;;;;0.20;0.20;;;;;;;-145.06;100.00;60892.56;5948492;23;20304;-89
2022/08/02 11:31:06;;;;;;;0.30;0.30;;;;;;;-145.06;100.00;60892.56;5947794;23;20076;-89
2022/08/02 11:33:51;;;;;;;0.68;0.50;;;;;;;-145.06;100.00;60892.56;5948498;23;20084;-90
2022/08/02 11:36:31;;;;;;;0.50;0.40;;;;;;;-145.06;100.00;60892.56;5948062;23;20040;-89
2022/08/02 11:39:15;;;;;;;0.50;0.47;;;;;;;-145.06;100.00;60892.56;5948293;23;20005;-90
2022/08/02 11:41:56;;;;;;;0.40;0.40;;;;;;;-145.06;100.00;60892.56;5948259;23;20001;-89
2022/08/02 11:44:41;;;;;;;0.35;0.35;;;;;;;-145.06;100.00;60892.56;5948137;23;20009;-90
2022/08/02 11:47:20;;;;;;;0.60;0.50;;;;;;;-145.06;100.00;60892.56;5979849;23;20001;-90
2022/08/02 11:50:09;;;;;;;0.55;0.45;;;;;;;29.69;100.00;60892.56;5969250;23;20009;-92
2022/08/02 11:52:49;;;;;;;0.52;0.40;;;;;;;-145.06;100.00;60892.56;5947905;23;20005;-90
2022/08/02 11:55:29;;;;;;;;;;;;;;;-145.06;100.00;60892.56;5948631;23;20009;-90
2022/08/02 11:58:10;;;;;;;0.40;0.30;;;;;;;-145.06;100.00;60892.56;5948054;23;19935;-89
2022/08/02 12:00:52;;;;;;;0.70;0.50;;;;;;;-145.06;100.00;60892.56;5948272;23;20032;-89
2022/08/02 12:03:38;;;;;;;0.43;0.40;;;;;;;-145.06;100.00;60892.56;5948135;23;20009;-90
2022/08/02 12:06:18;;;;;;;0.75;0.40;;;;;;;-145.06;100.00;60892.56;5948043;23;20005;-90
2022/08/02 12:09:08;;;;;;;0.75;0.47;;;;;;;-145.06;100.00;60892.56;5948308;23;20412;-91
2022/08/02 12:11:51;;;;;;;0.47;0.35;;;;;;;29.93;100.00;60892.56;5947916;23;20001;-90
2022/08/02 12:14:31;;;;;;;0.88;0.50;;;;;;;-145.06;100.00;60892.56;5948167;23;20095;-93
2022/08/02 12:20:11;;;;;;;0.40;0.40;;;;;;;-145.06;100.00;60892.56;5979918;23;20577;-91
2022/08/02 12:22:52;;;;;;;0.55;0.40;;;;;;;-145.06;100.00;60892.56;5947799;23;20005;-90
2022/08/02 12:25:34;;;;;;;0.30;0.30;;;;;;;29.94;100.00;60892.56;5979803;23;20032;-91
2022/08/02 12:28:16;;;;;;;0.85;0.60;;;;;;;29.90;100.00;60892.56;5947595;23;20005;-91
2022/08/02 12:30:57;;;;;;;0.50;0.40;;;;;;;-145.06;100.00;60892.56;5947587;23;20005;-91
2022/08/02 12:33:45;;;;;;;1.13;0.50;;;;;;;-145.06;100.00;60892.56;5947724;23;20005;-91
2022/08/02 12:36:28;;;;;;;0.40;0.32;;;;;;;30.05;100.00;60892.56;5947897;23;20040;-91
2022/08/02 12:39:13;;;;;;;0.55;0.50;;;;;;;30.14;100.00;60892.56;5948195;23;20017;-92
2022/08/02 12:41:56;;;;;;;0.50;0.40;;;;;;;-145.06;100.00;60892.56;5947555;23;20459;-90
2022/08/02 12:44:48;;;;;;;2.95;0.30;;;;;;;-145.06;100.00;60892.56;5948099;23;20005;-89
2022/08/02 12:47:29;;;;;;;0.40;0.40;;;;;;;-145.06;100.00;60892.56;5948069;23;20009;-91
2022/08/02 12:50:20;;;;;;;0.35;0.35;;;;;;;-145.06;100.00;60892.56;5947722;23;20005;-91
2022/08/02 12:56:35;;;;;;;1.38;0.68;;;;;;;-145.06;100.00;60892.56;5990997;22;20112;-89
2022/08/02 12:59:38;;;;;;;0.55;0.45;;;;;;;-145.06;100.00;60892.56;5978031;23;20316;-88
2022/08/02 13:02:20;;;;;;;0.60;0.60;;;;;;;-145.06;100.00;60892.56;6002958;23;20087;-91
2022/08/02 13:05:09;;;;;;;0.55;0.50;;;;;;;-145.06;100.00;60892.56;6003376;23;20020;-95